Latest Weather Observations for Cloncurry

IDQ60801

Issued at 3:02 pm EST Friday 27 March 2015 (issued every 30 minutes, with the page automatically refreshed every 10 minutes)

About weather observations | Map of weather stations | Latest weather observations for QLD | Other Formats
Station Details ID: 029141 Name: CLONCURRY AIRPORT Lat: -20.67 Lon: 140.50 Height: 186.0 m
Data from the previous 72 hours. | See also: Recent months at Cloncurry
Date/Time
EST
Temp
°C
App
Temp
°C
Dew
Point
Rel
Hum
%
Delta-T
°C
Wind Press
QNH
hPa
Press
MSL
hPa
Rain
since 9 am
mm
Dir
 
Spd
km/h
Gust
km/h
Spd
kts
Gust
kts
27/03:00pm 36.5 33.2 4.7 14 17.2 SSE 11 24 6 13 1013.4 1012.2 0.0
27/02:30pm 36.3 31.5 4.6 14 17.1 SE 19 28 10 15 1013.8 1012.5 0.0
27/02:00pm 36.2 32.7 5.5 15 16.8 SE 13 26 7 14 1014.4 1013.1 0.0
27/01:30pm 35.5 31.1 4.9 15 16.5 SSE 17 30 9 16 1014.8 1013.5 0.0
27/01:00pm 34.9 30.4 4.4 15 16.3 ESE 17 28 9 15 1015.3 1014.0 0.0
27/12:30pm 34.3 29.0 3.0 14 16.3 SE 20 30 11 16 1016.0 1014.7 0.0
27/12:00pm 34.3 28.2 3.0 14 16.3 ESE 24 35 13 19 1016.4 1015.1 0.0
27/11:30am 33.9 27.8 2.7 14 16.1 SE 24 35 13 19 1017.0 1015.7 0.0
27/11:00am 33.6 27.4 2.4 14 16.0 SE 24 33 13 18 1017.3 1016.0 0.0
27/10:30am 32.4 25.7 1.5 14 15.5 SSE 26 37 14 20 1017.7 1016.5 0.0
27/10:00am 31.7 24.9 1.0 14 15.2 SSE 26 37 14 20 1018.1 1016.9 0.0
27/09:30am 30.3 23.4 -0.1 14 14.6 SSE 26 35 14 19 1018.3 1017.1 0.0
27/09:00am 29.3 22.8 0.0 15 14.0 S 24 32 13 17 1018.3 1017.1 0.0
27/08:30am 27.5 20.8 -1.4 15 13.3 S 24 30 13 16 1018.0 1016.8 0.0
27/08:00am 26.5 20.2 -1.3 16 12.7 S 22 28 12 15 1017.9 1016.7 0.0
27/07:30am 25.6 19.6 -1.2 17 12.2 SSW 20 26 11 14 1017.7 1016.5 0.0
27/07:00am 24.9 18.9 -1.8 17 12.0 SSW 20 26 11 14 1017.5 1016.2 0.0
27/06:30am 25.2 19.7 -2.4 16 12.3 S 17 22 9 12 1017.3 1016.0 0.0
27/06:00am 26.1 20.1 -1.7 16 12.6 S 20 26 11 14 1017.2 1015.9 0.0
27/05:30am 26.9 20.9 -1.9 15 13.1 S 20 28 11 15 1017.1 1015.8 0.0
27/05:00am 27.3 21.5 -1.6 15 13.2 S 19 26 10 14 1016.9 1015.6 0.0
27/04:30am 27.6 20.5 -1.3 15 13.4 S 26 35 14 19 1016.6 1015.3 0.0
27/04:00am 27.8 21.1 -1.2 15 13.4 S 24 32 13 17 1016.4 1015.1 0.0
27/03:30am 27.9 21.6 -1.1 15 13.5 S 22 28 12 15 1016.4 1015.1 0.0
27/03:00am 28.3 21.9 -1.7 14 13.8 S 22 28 12 15 1016.7 1015.4 0.0
27/02:30am 28.4 22.0 -1.6 14 13.9 S 22 30 12 16 1016.8 1015.5 0.0
27/02:00am 28.6 21.8 -1.5 14 14.0 S 24 30 13 16 1016.9 1015.6 0.0
27/01:30am 28.5 21.7 -1.6 14 13.9 S 24 32 13 17 1017.0 1015.7 0.0
27/01:00am 28.6 22.1 -2.5 13 14.2 S 22 32 12 17 1017.2 1015.9 0.0
27/12:30am 28.7 21.8 -2.4 13 14.2 S 24 32 13 17 1017.3 1016.0 0.0
27/12:00am 29.1 22.3 -2.1 13 14.4 S 24 33 13 18 1017.4 1016.1 0.0
 
Date/Time
EST
Temp
°C
App
Temp
°C
Dew
Point
Rel
Hum
%
Delta-T
°C
Wind Press
QNH
hPa
Press
MSL
hPa
Rain
since 9 am
mm
Dir
 
Spd
km/h
Gust
km/h
Spd
kts
Gust
kts
26/11:30pm 29.4 22.1 -2.9 12 14.7 S 26 35 14 19 1017.6 1016.4 0.0
26/11:00pm 29.7 22.0 -2.7 12 14.8 S 28 35 15 19 1017.7 1016.5 0.0
26/10:30pm 30.0 22.7 -2.5 12 15.0 S 26 33 14 18 1017.8 1016.6 0.0
26/10:00pm 30.7 23.0 -3.1 11 15.5 S 28 41 15 22 1017.8 1016.6 0.0
26/09:30pm 31.4 23.7 -2.6 11 15.8 S 28 43 15 23 1017.5 1016.2 0.0
26/09:00pm 31.7 24.8 -2.3 11 15.9 S 24 32 13 17 1017.4 1016.1 0.0
26/08:30pm 32.1 24.9 -2.0 11 16.1 S 26 39 14 21 1016.9 1015.6 0.0
26/08:00pm 31.8 24.6 -2.3 11 16.0 S 26 37 14 20 1016.4 1015.1 0.0
26/07:30pm 32.7 25.8 -2.9 10 16.6 S 24 37 13 20 1015.9 1014.6 0.0
26/07:00pm 33.1 26.2 -2.6 10 16.8 S 24 32 13 17 1015.6 1014.3 0.0
26/06:30pm 33.8 27.0 -2.0 10 17.1 S 24 39 13 21 1015.2 1013.9 0.0
26/06:00pm 34.8 27.7 -1.3 10 17.6 S 26 37 14 20 1014.9 1013.6 0.0
26/05:30pm 35.3 27.7 -2.3 9 18.1 S 28 35 15 19 1014.6 1013.3 0.0
26/05:00pm 36.0 28.8 -1.8 9 18.4 SSW 26 33 14 18 1014.3 1013.0 0.0
26/04:30pm 36.1 29.7 -1.7 9 18.4 SSW 22 37 12 20 1014.4 1013.1 0.0
26/04:00pm 35.6 28.0 -2.1 9 18.2 S 28 37 15 20 1014.4 1013.1 0.0
26/03:30pm 36.4 30.4 -1.5 9 18.6 SSW 20 33 11 18 1014.4 1013.1 0.0
26/03:00pm 36.8 31.0 -1.2 9 18.8 S 19 26 10 14 1014.7 1013.4 0.0
26/02:30pm 36.0 29.2 -1.8 9 18.4 SSE 24 35 13 19 1015.2 1013.9 0.0
26/02:00pm 35.3 29.4 -0.9 10 17.8 SSE 20 41 11 22 1015.6 1014.3 0.0
26/01:30pm 34.3 27.5 -1.7 10 17.4 SSE 24 32 13 17 1016.2 1014.9 0.0
26/01:00pm 33.9 27.6 -0.7 11 16.9 SE 22 32 12 17 1016.9 1015.6 0.0
26/12:30pm 33.7 28.0 0.4 12 16.5 SSE 20 28 11 15 1017.5 1016.2 0.0
26/12:00pm 32.0 24.9 -0.9 12 15.8 SSE 26 35 14 19 1018.2 1017.0 0.0
26/11:30am 31.8 24.9 0.0 13 15.5 SSE 26 33 14 18 1018.6 1017.4 0.0
26/11:00am 30.7 24.0 -0.8 13 15.0 SSE 24 32 13 17 1018.9 1017.7 0.0
26/10:30am 29.7 22.6 -1.6 13 14.6 SSE 26 33 14 18 1019.2 1017.9 0.0
26/10:00am 29.5 21.7 -0.8 14 14.3 S 30 37 16 20 1018.9 1017.7 0.0
26/09:30am 28.9 21.0 -1.2 14 14.1 SSE 30 35 16 19 1018.9 1017.7 0.0
26/09:00am 28.6 22.2 -1.5 14 13.9 S 22 30 12 16 1018.9 1017.7 0.0
26/08:30am 28.0 21.2 -2.0 14 13.7 SSE 24 32 13 17 1018.6 1017.4 0.0
26/08:00am 27.7 22.7 -1.3 15 13.4 SSE 15 20 8 11 1018.4 1017.2 0.0
26/07:30am 27.4 22.2 -2.4 14 13.5 SSE 15 20 8 11 1017.9 1016.7 0.0
26/07:00am 27.4 21.3 -2.4 14 13.5 SSE 20 26 11 14 1017.5 1016.2 0.0
26/06:30am 27.6 21.7 -2.3 14 13.6 SSE 19 26 10 14 1017.3 1016.0 0.0
26/06:00am 27.7 21.8 -2.2 14 13.6 SSE 19 28 10 15 1016.8 1015.5 0.0
26/05:30am 27.8 21.8 -1.2 15 13.5 S 20 32 11 17 1016.4 1015.1 0.0
26/05:00am 27.8 21.8 -1.2 15 13.4 S 20 26 11 14 1015.9 1014.6 0.0
26/04:30am 28.1 22.2 -0.9 15 13.6 S 20 28 11 15 1015.6 1014.3 0.0
26/04:00am 28.3 22.2 0.1 16 13.4 S 22 28 12 15 1015.4 1014.1 0.0
26/03:30am 28.3 22.8 0.9 17 13.2 S 19 28 10 15 1015.3 1014.0 0.0
26/03:00am 28.5 22.5 1.1 17 13.3 SSW 22 32 12 17 1015.4 1014.1 0.0
26/02:30am 28.9 22.2 1.4 17 13.5 S 26 35 14 19 1015.4 1014.1 0.0
26/02:00am 29.1 22.9 2.4 18 13.3 SSW 24 32 13 17 1015.5 1014.2 0.0
26/01:30am 29.5 22.6 2.7 18 13.5 S 28 41 15 22 1015.7 1014.4 0.0
26/01:00am 29.8 22.6 2.9 18 13.6 S 30 41 16 22 1015.8 1014.5 0.0
26/12:30am 30.1 24.2 4.0 19 13.5 S 24 32 13 17 1015.9 1014.6 0.0
26/12:00am 30.4 24.2 4.2 19 13.6 SSW 26 37 14 20 1015.9 1014.6 0.0
 
Date/Time
EST
Temp
°C
App
Temp
°C
Dew
Point
Rel
Hum
%
Delta-T
°C
Wind Press
QNH
hPa
Press
MSL
hPa
Rain
since 9 am
mm
Dir
 
Spd
km/h
Gust
km/h
Spd
kts
Gust
kts
25/11:30pm 30.4 25.1 4.9 20 13.4 S 22 28 12 15 1015.9 1014.6 0.0
25/11:00pm 30.7 25.1 5.2 20 13.5 S 24 35 13 19 1015.8 1014.5 0.0
25/10:30pm 31.0 25.0 5.4 20 13.6 S 26 35 14 19 1015.9 1014.6 0.0
25/10:00pm 31.4 25.1 5.8 20 13.7 S 28 37 15 20 1016.0 1014.7 0.0
25/09:36pm 31.8 25.6 6.1 20 13.9 S 28 46 15 25 1015.9 1014.6 0.0
25/09:30pm 31.7 25.8 6.0 20 13.8 S 26 32 14 17 1015.8 1014.5 0.0
25/09:00pm 32.1 25.9 6.3 20 14.0 S 28 35 15 19 1015.6 1014.3 0.0
25/08:30pm 32.4 26.3 6.6 20 14.1 SSW 28 39 15 21 1015.3 1014.0 0.0
25/08:00pm 32.7 26.3 6.8 20 14.2 SSW 30 37 16 20 1015.1 1013.8 0.0
25/07:30pm 32.8 29.4 7.6 21 14.0 SW 15 32 8 17 1014.8 1013.5 0.0
25/07:00pm 32.8 29.6 6.9 20 14.2 SSW 13 15 7 8 1014.4 1013.1 0.0
25/06:30pm 33.2 30.5 7.2 20 14.4 SW 11 13 6 7 1014.2 1012.9 0.0
25/06:00pm 33.4 30.1 6.6 19 14.7 SW 13 15 7 8 1014.0 1012.7 0.0
25/05:30pm 33.9 30.4 7.0 19 14.9 SSW 15 17 8 9 1013.8 1012.5 0.0
25/05:00pm 33.9 30.0 7.0 19 14.9 SSW 17 20 9 11 1013.4 1012.2 0.0
25/04:30pm 34.4 30.2 7.5 19 15.0 SSW 19 26 10 14 1013.4 1012.2 0.0
25/04:00pm 34.2 29.9 8.0 20 14.8 SSW 20 26 11 14 1013.3 1012.1 0.0
25/03:30pm 34.2 30.1 8.8 21 14.5 SSW 20 28 11 15 1013.4 1012.2 0.0
25/03:00pm 33.6 29.6 8.3 21 14.3 SW 19 22 10 12 1013.7 1012.4 0.0
25/02:30pm 33.4 29.7 8.1 21 14.2 S 17 24 9 13 1014.0 1012.7 0.0
25/02:00pm 33.8 29.8 8.4 21 14.4 SSW 19 26 10 14 1014.3 1013.0 0.0
25/01:30pm 33.4 29.7 9.4 23 13.8 S 19 24 10 13 1014.7 1013.4 0.0
25/01:00pm 32.8 28.9 9.6 24 13.3 S 20 26 11 14 1015.1 1013.8 0.0
25/12:30pm 32.1 28.3 9.0 24 13.1 S 19 24 10 13 1015.7 1014.4 0.0
25/12:00pm 31.5 27.4 8.5 24 12.9 S 20 26 11 14 1016.1 1014.8 0.0
25/11:30am 31.1 27.0 8.8 25 12.5 S 20 32 11 17 1016.8 1015.5 0.0
25/11:00am 30.4 25.6 8.7 26 12.1 S 24 32 13 17 1016.9 1015.6 0.0
25/10:30am 29.9 25.1 8.9 27 11.7 SSW 24 32 13 17 1017.1 1015.8 0.0
25/10:00am 29.2 24.4 8.8 28 11.3 S 24 30 13 16 1017.1 1015.8 0.0
25/09:30am 28.4 23.6 8.7 29 10.9 S 24 32 13 17 1017.0 1015.7 0.0
25/09:00am 27.8 22.4 8.1 29 10.7 S 26 33 14 18 1016.7 1015.4 0.0
25/08:30am 27.8 22.4 8.1 29 10.8 S 26 35 14 19 1016.5 1015.2 0.0
25/08:00am 27.7 22.3 8.1 29 10.7 S 26 33 14 18 1016.3 1015.0 0.0
25/07:30am 27.5 23.0 8.4 30 10.5 S 22 32 12 17 1015.9 1014.6 0.0
25/07:00am 27.5 23.3 8.4 30 10.5 S 20 26 11 14 1015.8 1014.5 0.0
25/06:30am 27.6 23.7 8.5 30 10.5 SSW 19 26 10 14 1015.6 1014.3 0.0
25/06:00am 27.7 23.8 8.6 30 10.5 S 19 26 10 14 1015.3 1014.0 0.0
25/05:30am 28.0 24.1 8.8 30 10.6 S 19 28 10 15 1015.1 1013.8 0.0
25/05:00am 28.3 24.9 9.1 30 10.7 SSW 17 24 9 13 1014.6 1013.3 0.0
25/04:30am 28.6 24.9 9.3 30 10.8 S 19 24 10 13 1014.5 1013.2 0.0
25/04:00am 28.9 24.7 9.6 30 10.9 S 22 30 12 16 1014.1 1012.8 0.0
25/03:30am 28.9 25.0 9.6 30 10.9 SSW 20 28 11 15 1013.8 1012.5 0.0
25/03:00am 29.2 25.0 9.8 30 11.0 SSW 22 30 12 16 1013.7 1012.4 0.0
25/02:30am 29.8 26.4 11.3 32 10.8 SSW 20 30 11 16 1013.9 1012.6 0.0
25/02:00am 29.7 28.9 16.1 43 8.5 SW 15 22 8 12 1014.0 1012.7 0.0
25/01:30am 29.1 28.3 17.9 50 7.2 W 19 26 10 14 1013.9 1012.6 0.0
25/01:00am 28.8 28.4 18.0 52 6.9 W 17 24 9 13 1014.1 1012.8 0.0
25/12:30am 28.7 28.9 17.6 51 7.1 W 13 19 7 10 1014.6 1013.3 0.0
25/12:00am 28.8 28.3 17.7 51 7.1 W 17 24 9 13 1015.0 1013.7 0.0
 
Date/Time
EST
Temp
°C
App
Temp
°C
Dew
Point
Rel
Hum
%
Delta-T
°C
Wind Press
QNH
hPa
Press
MSL
hPa
Rain
since 9 am
mm
Dir
 
Spd
km/h
Gust
km/h
Spd
kts
Gust
kts
24/11:30pm 29.0 28.5 17.8 50 7.2 W 17 24 9 13 1015.0 1013.7 0.0
24/11:00pm 28.9 29.4 17.4 49 7.3 WNW 11 15 6 8 1015.3 1014.0 0.0
24/10:30pm 28.8 28.8 17.3 49 7.3 NNW 13 19 7 10 1015.3 1014.0 0.0
24/10:00pm 29.0 27.7 17.2 49 7.5 NNW 20 28 11 15 1014.7 1013.4 0.0
24/09:30pm 29.0 27.4 16.5 46 7.8 NNW 20 30 11 16 1014.4 1013.1 0.0
24/09:00pm 29.5 26.3 15.2 41 8.8 N 26 32 14 17 1013.8 1012.5 0.0
24/08:35pm 31.5 29.2 14.2 35 10.6 NNE 19 37 10 20 1013.2 1012.0 0.0
24/08:30pm 33.2 32.8 15.2 33 11.2 NNE 11 15 6 8 1012.9 1011.7 0.0
24/08:00pm 33.2 33.0 15.7 35 11.0 ENE 11 17 6 9 1012.3 1011.0 0.0
24/07:30pm 33.0 31.4 15.0 33 11.2 NE 17 26 9 14 1011.7 1010.4 0.0
24/07:00pm 33.1 30.5 13.7 31 11.9 NNE 20 28 11 15 1011.3 1010.0 0.0
24/06:30pm 33.6 28.9 13.1 29 12.4 ESE 30 39 16 21 1011.4 1010.1 0.0
24/06:21pm 34.0 29.6 14.0 30 12.3 ESE 30 48 16 26 1011.3 1010.0 0.0
24/06:00pm 35.2 31.1 11.6 24 14.1 E 24 37 13 20 1010.8 1009.5 0.0
24/05:30pm 38.0 35.4 11.9 21 15.8 S 17 24 9 13 1009.7 1008.4 0.0
24/05:00pm 38.2 35.6 12.0 21 15.9 SW 17 22 9 12 1009.6 1008.3 0.0
24/04:30pm 38.5 36.2 13.0 22 15.7 SSW 17 24 9 13 1009.5 1008.2 0.0
24/04:00pm 38.1 37.7 14.0 24 15.1 ESE 9 15 5 8 1009.8 1008.5 0.0
24/03:30pm 37.7 37.0 14.3 25 14.7 S 11 20 6 11 1010.1 1008.8 0.0

Other Formats:

Comma delimited format used in spreadsheet applications
http://www.bom.gov.au/fwo/IDQ60801/IDQ60801.94335.axf

JavaScript Object Notation format (JSON) in row-major order
http://www.bom.gov.au/fwo/IDQ60801/IDQ60801.94335.json